Time;durP1;ratioP1;P1;durP2;ratioP2;P2;SDS_P1;SDS_P2;PMS_P1;PMS_P2;Temp;Humidity;BMP_temperature;BMP_pressure;BME280_temperature;BME280_humidity;BME280_pressure;Samples;Min_cycle;Max_cycle;Signal;HPM_P1;HPM_P2
2021/08/31 00:02:07;;;;;;;9.45;4.07;;;;;;;;;;5073442;28;20058;-71
2021/08/31 00:04:33;;;;;;;15.65;3.60;;;;;;;;;;5072618;28;20055;-71
2021/08/31 00:06:59;;;;;;;11.55;4.35;;;;;;;;;;5072846;28;20024;-71
2021/08/31 00:09:25;;;;;;;15.32;4.20;;;;;;;;;;5072992;28;20094;-70
2021/08/31 00:11:51;;;;;;;9.02;3.80;;;;;;;;;;5072949;28;20372;-67
2021/08/31 00:14:17;;;;;;;21.42;3.70;;;;;;;;;;5055153;28;20429;-71
2021/08/31 00:16:44;;;;;;;12.65;4.38;;;;;;;;;;5072946;28;20535;-71
2021/08/31 00:19:10;;;;;;;12.55;4.20;;;;;;;;;;5072751;28;20056;-70
2021/08/31 00:21:36;;;;;;;14.45;4.05;;;;;;;;;;5072601;28;20017;-69
2021/08/31 00:24:02;;;;;;;12.35;4.43;;;;;;;;;;5071834;28;20035;-71
2021/08/31 00:26:28;;;;;;;15.80;3.90;;;;;;;;;;5072195;28;20023;-70
2021/08/31 00:28:54;;;;;;;28.05;4.35;;;;;;;;;;5072337;28;20127;-63
2021/08/31 00:31:20;;;;;;;17.25;3.58;;;;;;;;;;5072515;28;20020;-68
2021/08/31 00:33:46;;;;;;;9.55;3.72;;;;;;;;;;5072530;28;20103;-71
2021/08/31 00:36:12;;;;;;;20.38;4.50;;;;;;;;;;5072817;28;20110;-64
2021/08/31 00:38:38;;;;;;;15.70;3.55;;;;;;;;;;5072478;28;20020;-69
2021/08/31 00:41:04;;;;;;;15.68;3.38;;;;;;;;;;5072345;28;20141;-71
2021/08/31 00:43:48;;;;;;;15.88;3.95;;;;;;;;;;5072263;28;20052;-63
2021/08/31 00:46:14;;;;;;;13.30;4.13;;;;;;;;;;5072058;28;20020;-71
2021/08/31 00:48:41;;;;;;;17.00;3.90;;;;;;;;;;5072552;28;20068;-71
2021/08/31 00:51:08;;;;;;;15.30;4.30;;;;;;;;;;5072851;28;20504;-71
2021/08/31 00:53:34;;;;;;;12.05;3.63;;;;;;;;;;5054808;28;20032;-72
2021/08/31 00:56:00;;;;;;;8.65;3.72;;;;;;;;;;5059950;28;20111;-71
2021/08/31 00:58:26;;;;;;;9.88;3.72;;;;;;;;;;5072639;28;20103;-71
2021/08/31 01:00:52;;;;;;;10.60;4.35;;;;;;;;;;5072515;28;20029;-71
2021/08/31 01:03:18;;;;;;;14.88;4.22;;;;;;;;;;5072354;28;20028;-70
2021/08/31 01:05:44;;;;;;;14.98;3.45;;;;;;;;;;5072557;28;20016;-71
2021/08/31 01:08:10;;;;;;;8.43;4.30;;;;;;;;;;5072598;28;20473;-72
2021/08/31 01:10:36;;;;;;;10.73;4.00;;;;;;;;;;5069032;28;20029;-71
2021/08/31 01:13:02;;;;;;;15.60;4.68;;;;;;;;;;5052181;28;20021;-68
2021/08/31 01:15:28;;;;;;;7.05;3.83;;;;;;;;;;5052304;28;20071;-71
2021/08/31 01:17:55;;;;;;;11.32;4.28;;;;;;;;;;5051850;28;20192;-57
2021/08/31 01:20:21;;;;;;;10.75;3.85;;;;;;;;;;5033310;28;20052;-60
2021/08/31 01:22:48;;;;;;;17.88;4.82;;;;;;;;;;5033608;28;20028;-70
2021/08/31 01:25:14;;;;;;;16.77;4.30;;;;;;;;;;5052263;28;20040;-68
2021/08/31 01:27:40;;;;;;;19.17;4.28;;;;;;;;;;5037829;28;20033;-60
2021/08/31 01:30:06;;;;;;;12.52;4.32;;;;;;;;;;5071963;28;20036;-68
2021/08/31 01:32:32;;;;;;;8.82;3.88;;;;;;;;;;5071940;28;20043;-69
2021/08/31 01:34:58;;;;;;;19.08;4.40;;;;;;;;;;5054190;28;20115;-69
2021/08/31 01:37:24;;;;;;;14.07;3.95;;;;;;;;;;5071973;28;20159;-69
2021/08/31 01:39:50;;;;;;;7.85;3.22;;;;;;;;;;5074324;28;20025;-61
2021/08/31 01:42:16;;;;;;;11.80;4.03;;;;;;;;;;5075327;28;20089;-65
2021/08/31 01:44:42;;;;;;;14.55;4.05;;;;;;;;;;5075480;28;20024;-61
2021/08/31 01:47:10;;;;;;;14.75;4.25;;;;;;;;;;5075058;28;20115;-62
2021/08/31 01:49:36;;;;;;;11.38;3.85;;;;;;;;;;5075075;28;20071;-67
2021/08/31 01:52:02;;;;;;;11.38;3.97;;;;;;;;;;5075206;28;20025;-68
2021/08/31 01:54:28;;;;;;;11.25;3.85;;;;;;;;;;5075315;28;20032;-69
2021/08/31 01:56:54;;;;;;;11.07;3.72;;;;;;;;;;5057577;28;20074;-69
2021/08/31 01:59:20;;;;;;;13.73;3.65;;;;;;;;;;5056966;28;20033;-69
2021/08/31 02:01:46;;;;;;;13.43;3.72;;;;;;;;;;5074410;28;20031;-69
2021/08/31 02:04:12;;;;;;;12.95;4.10;;;;;;;;;;5075061;28;20043;-67
2021/08/31 02:06:38;;;;;;;11.40;3.17;;;;;;;;;;5074719;28;20024;-68
2021/08/31 02:09:04;;;;;;;14.23;4.03;;;;;;;;;;5074691;28;20040;-68
2021/08/31 02:11:30;;;;;;;12.05;4.07;;;;;;;;;;5075092;28;20095;-64
2021/08/31 02:13:56;;;;;;;8.82;3.50;;;;;;;;;;5074626;28;20075;-68
2021/08/31 02:16:22;;;;;;;11.07;3.60;;;;;;;;;;5074688;28;20055;-66
2021/08/31 02:18:48;;;;;;;7.78;3.15;;;;;;;;;;5072408;28;20480;-62
2021/08/31 02:21:14;;;;;;;11.77;3.63;;;;;;;;;;5067788;28;20100;-68
2021/08/31 02:23:40;;;;;;;8.45;3.97;;;;;;;;;;5054910;28;20029;-68
2021/08/31 02:26:06;;;;;;;8.98;3.05;;;;;;;;;;5054726;28;20468;-65
2021/08/31 02:28:32;;;;;;;11.88;3.70;;;;;;;;;;5054678;28;20045;-68
2021/08/31 02:30:58;;;;;;;10.80;3.83;;;;;;;;;;5055953;28;20468;-68
2021/08/31 02:33:24;;;;;;;8.25;3.53;;;;;;;;;;5066833;28;20025;-68
2021/08/31 02:35:50;;;;;;;8.88;3.63;;;;;;;;;;5054447;28;20060;-69
2021/08/31 02:38:16;;;;;;;12.52;3.20;;;;;;;;;;5071334;28;20028;-69
2021/08/31 02:40:42;;;;;;;10.88;3.90;;;;;;;;;;5074548;28;20104;-69
2021/08/31 02:43:08;;;;;;;10.50;3.88;;;;;;;;;;5074418;28;20035;-69
2021/08/31 02:45:34;;;;;;;9.32;3.55;;;;;;;;;;5074438;28;20032;-67
2021/08/31 02:48:00;;;;;;;7.28;3.55;;;;;;;;;;5074351;28;20467;-68
2021/08/31 02:50:26;;;;;;;13.38;4.32;;;;;;;;;;5055310;28;20017;-64
2021/08/31 02:52:52;;;;;;;12.02;4.10;;;;;;;;;;5053320;28;20068;-63
2021/08/31 02:55:18;;;;;;;7.82;3.75;;;;;;;;;;5053955;28;20033;-69
2021/08/31 02:57:43;;;;;;;8.88;3.90;;;;;;;;;;5053769;28;20036;-67
2021/08/31 03:00:17;;;;;;;11.60;4.10;;;;;;;;;;5053819;28;20033;-67
2021/08/31 03:02:43;;;;;;;10.40;3.75;;;;;;;;;;5053766;28;20734;-68
2021/08/31 03:05:09;;;;;;;11.75;4.53;;;;;;;;;;5053814;28;20111;-68
2021/08/31 03:07:35;;;;;;;6.85;3.38;;;;;;;;;;5055762;28;20427;-69
2021/08/31 03:10:01;;;;;;;11.38;4.10;;;;;;;;;;5074179;28;20027;-66
2021/08/31 03:12:27;;;;;;;12.95;3.60;;;;;;;;;;5055808;28;20484;-70
2021/08/31 03:14:52;;;;;;;13.48;3.92;;;;;;;;;;5073938;28;20047;-69
2021/08/31 03:17:18;;;;;;;7.55;2.95;;;;;;;;;;5073918;28;20056;-70
2021/08/31 03:19:44;;;;;;;10.70;3.50;;;;;;;;;;5073372;28;20716;-70
2021/08/31 03:22:11;;;;;;;7.60;3.40;;;;;;;;;;5056111;28;20021;-69
2021/08/31 03:24:37;;;;;;;11.98;3.30;;;;;;;;;;5051517;28;20475;-68
2021/08/31 03:27:04;;;;;;;7.72;3.13;;;;;;;;;;5053255;28;20500;-67
2021/08/31 03:29:30;;;;;;;17.27;2.88;;;;;;;;;;5053766;28;20021;-70
2021/08/31 03:31:56;;;;;;;17.65;3.53;;;;;;;;;;5053020;28;20075;-69
2021/08/31 03:34:22;;;;;;;10.60;3.72;;;;;;;;;;5052908;28;20029;-65
2021/08/31 03:36:50;;;;;;;11.43;3.92;;;;;;;;;;5057782;28;20099;-70
2021/08/31 03:39:16;;;;;;;19.08;3.55;;;;;;;;;;5073400;28;20104;-67
2021/08/31 03:41:42;;;;;;;12.93;3.40;;;;;;;;;;5058986;28;20130;-71
2021/08/31 03:44:08;;;;;;;14.60;3.67;;;;;;;;;;5033567;28;20030;-71
2021/08/31 03:46:34;;;;;;;8.48;3.72;;;;;;;;;;5033652;28;20083;-70
2021/08/31 03:49:00;;;;;;;8.57;3.60;;;;;;;;;;5033705;28;20045;-71
2021/08/31 03:51:26;;;;;;;10.30;3.67;;;;;;;;;;5033432;28;20025;-68
2021/08/31 03:53:52;;;;;;;7.35;3.22;;;;;;;;;;5033446;28;20021;-69
2021/08/31 03:56:18;;;;;;;6.05;3.35;;;;;;;;;;5033137;28;20033;-68
2021/08/31 03:58:44;;;;;;;13.18;3.28;;;;;;;;;;5033456;28;20064;-65
2021/08/31 04:01:10;;;;;;;14.00;4.95;;;;;;;;;;5032440;28;20633;-70
2021/08/31 04:03:36;;;;;;;10.27;3.83;;;;;;;;;;5015781;28;20104;-68
2021/08/31 04:06:02;;;;;;;12.57;3.70;;;;;;;;;;5033020;28;20025;-67
2021/08/31 04:08:28;;;;;;;12.02;4.35;;;;;;;;;;5033570;28;20026;-69
2021/08/31 04:10:54;;;;;;;11.82;4.35;;;;;;;;;;5032925;28;20044;-69
2021/08/31 04:13:20;;;;;;;10.90;3.92;;;;;;;;;;5033130;28;20053;-65
2021/08/31 04:15:47;;;;;;;17.42;3.88;;;;;;;;;;5032671;28;20091;-65
2021/08/31 04:18:13;;;;;;;16.52;4.10;;;;;;;;;;5044739;28;20037;-68
2021/08/31 04:20:39;;;;;;;8.48;3.50;;;;;;;;;;5084927;28;20054;-58
2021/08/31 04:23:05;;;;;;;13.20;4.43;;;;;;;;;;5092398;28;20533;-69
2021/08/31 04:25:31;;;;;;;7.40;3.17;;;;;;;;;;5092769;28;20028;-68
2021/08/31 04:27:57;;;;;;;12.93;3.90;;;;;;;;;;5092514;28;20491;-67
2021/08/31 04:30:23;;;;;;;10.75;4.20;;;;;;;;;;5092602;28;20020;-66
2021/08/31 04:32:49;;;;;;;13.52;4.00;;;;;;;;;;5092656;28;20082;-69
2021/08/31 04:35:15;;;;;;;14.35;4.07;;;;;;;;;;5082277;28;20107;-70
2021/08/31 04:37:41;;;;;;;8.70;4.00;;;;;;;;;;5064950;28;20119;-70
2021/08/31 04:40:07;;;;;;;14.27;4.40;;;;;;;;;;5072245;28;20035;-68
2021/08/31 04:42:33;;;;;;;26.17;4.38;;;;;;;;;;5072197;28;20048;-68
2021/08/31 04:44:59;;;;;;;15.27;4.15;;;;;;;;;;5054022;28;20071;-68
2021/08/31 04:47:25;;;;;;;15.80;3.67;;;;;;;;;;5072584;28;20033;-68
2021/08/31 04:49:51;;;;;;;18.13;4.40;;;;;;;;;;5072395;28;20032;-67
2021/08/31 04:52:17;;;;;;;16.23;3.38;;;;;;;;;;5080836;28;20127;-68
2021/08/31 04:54:43;;;;;;;12.20;4.43;;;;;;;;;;5092564;28;20068;-67
2021/08/31 04:57:09;;;;;;;15.30;4.45;;;;;;;;;;5092010;28;20059;-69
2021/08/31 04:59:35;;;;;;;13.45;3.92;;;;;;;;;;5092865;28;20020;-67
2021/08/31 05:02:00;;;;;;;13.20;4.10;;;;;;;;;;5092502;28;20033;-69
2021/08/31 05:04:30;;;;;;;23.48;4.13;;;;;;;;;;5092346;28;20031;-68
2021/08/31 05:06:56;;;;;;;11.40;4.07;;;;;;;;;;5092805;28;20016;-66
2021/08/31 05:09:22;;;;;;;10.15;3.35;;;;;;;;;;5092736;28;20071;-69
2021/08/31 05:11:48;;;;;;;10.77;4.50;;;;;;;;;;5092378;28;20436;-69
2021/08/31 05:14:14;;;;;;;13.10;4.20;;;;;;;;;;5095718;28;20031;-68
2021/08/31 05:16:40;;;;;;;12.68;4.35;;;;;;;;;;5096230;28;20101;-69
2021/08/31 05:19:06;;;;;;;11.25;4.43;;;;;;;;;;5096143;28;20040;-70
2021/08/31 05:21:32;;;;;;;13.13;3.85;;;;;;;;;;5074534;28;20029;-66
2021/08/31 05:23:59;;;;;;;11.70;4.25;;;;;;;;;;5058074;28;20345;-68
2021/08/31 05:26:25;;;;;;;13.63;4.40;;;;;;;;;;5072888;28;20059;-65
2021/08/31 05:28:51;;;;;;;9.23;3.70;;;;;;;;;;5055761;28;20520;-69
2021/08/31 05:31:17;;;;;;;14.07;4.40;;;;;;;;;;5055515;28;20017;-68
2021/08/31 05:33:43;;;;;;;20.58;4.10;;;;;;;;;;5056028;28;20025;-66
2021/08/31 05:36:09;;;;;;;21.05;4.25;;;;;;;;;;5056142;28;20021;-69
2021/08/31 05:38:35;;;;;;;10.10;4.13;;;;;;;;;;5075595;28;20388;-68
2021/08/31 05:41:01;;;;;;;10.18;3.78;;;;;;;;;;5075293;28;20017;-69
2021/08/31 05:43:28;;;;;;;9.00;4.22;;;;;;;;;;5075615;28;20027;-68
2021/08/31 05:45:54;;;;;;;12.38;3.65;;;;;;;;;;5075647;28;20020;-63
2021/08/31 05:48:20;;;;;;;14.82;4.05;;;;;;;;;;5075434;28;20036;-67
2021/08/31 05:50:46;;;;;;;7.93;3.90;;;;;;;;;;5075931;28;20078;-68
2021/08/31 05:53:12;;;;;;;14.23;3.80;;;;;;;;;;5075534;28;20033;-69
2021/08/31 05:55:38;;;;;;;13.63;3.60;;;;;;;;;;5056479;28;20027;-70
2021/08/31 05:58:04;;;;;;;11.45;4.05;;;;;;;;;;5057614;28;20056;-68
2021/08/31 06:00:30;;;;;;;16.95;3.42;;;;;;;;;;5075190;28;20086;-68
2021/08/31 06:02:56;;;;;;;13.80;4.28;;;;;;;;;;5075285;28;20055;-70
2021/08/31 06:05:22;;;;;;;10.23;3.72;;;;;;;;;;5075580;28;20047;-69
2021/08/31 06:07:49;;;;;;;20.83;4.03;;;;;;;;;;5075090;28;20048;-65
2021/08/31 06:10:15;;;;;;;12.77;4.25;;;;;;;;;;5075104;28;20051;-68
2021/08/31 06:12:42;;;;;;;11.93;3.90;;;;;;;;;;5075287;28;20032;-70
2021/08/31 06:15:08;;;;;;;15.38;4.07;;;;;;;;;;5075138;28;20048;-64
2021/08/31 06:17:37;;;;;;;11.32;3.95;;;;;;;;;;5075276;28;20029;-70
2021/08/31 06:20:04;;;;;;;34.50;3.53;;;;;;;;;;5074826;28;20048;-68
2021/08/31 06:22:30;;;;;;;23.73;4.30;;;;;;;;;;5074703;28;20064;-65
2021/08/31 06:24:56;;;;;;;17.73;3.72;;;;;;;;;;5073876;28;20048;-71
2021/08/31 06:27:23;;;;;;;7.65;3.03;;;;;;;;;;5072157;28;20040;-68
2021/08/31 06:29:49;;;;;;;16.27;3.58;;;;;;;;;;5037479;28;20472;-71
2021/08/31 06:32:15;;;;;;;40.33;4.25;;;;;;;;;;5061861;28;20035;-59
2021/08/31 06:34:41;;;;;;;22.63;3.78;;;;;;;;;;5074262;28;20032;-70
2021/08/31 06:37:07;;;;;;;37.95;3.55;;;;;;;;;;5074800;28;20036;-69
2021/08/31 06:39:33;;;;;;;25.10;3.65;;;;;;;;;;5074438;28;20368;-70
2021/08/31 06:41:59;;;;;;;27.35;4.60;;;;;;;;;;5074837;28;20066;-70
2021/08/31 06:44:25;;;;;;;33.30;4.18;;;;;;;;;;5073551;28;20036;-65
2021/08/31 06:46:51;;;;;;;46.08;4.85;;;;;;;;;;5072908;28;20124;-63
2021/08/31 06:49:17;;;;;;;15.52;3.80;;;;;;;;;;5067570;28;20476;-62
2021/08/31 06:51:43;;;;;;;25.38;4.03;;;;;;;;;;5056049;28;20020;-63
2021/08/31 06:54:09;;;;;;;20.33;3.63;;;;;;;;;;5073827;28;20028;-63
2021/08/31 06:56:35;;;;;;;14.57;3.80;;;;;;;;;;5073874;28;20028;-61
2021/08/31 06:59:01;;;;;;;35.55;3.80;;;;;;;;;;5073961;28;20036;-61
2021/08/31 07:01:28;;;;;;;18.73;4.63;;;;;;;;;;5073260;28;20029;-62
2021/08/31 07:03:54;;;;;;;10.50;3.78;;;;;;;;;;5073946;28;20051;-61
2021/08/31 07:06:20;;;;;;;26.92;4.50;;;;;;;;;;5074066;28;20372;-59
2021/08/31 07:08:46;;;;;;;22.52;4.00;;;;;;;;;;5073782;28;20112;-65
2021/08/31 07:11:12;;;;;;;22.52;4.35;;;;;;;;;;5073742;28;20029;-60
2021/08/31 07:13:38;;;;;;;39.05;4.25;;;;;;;;;;5073966;28;20025;-58
2021/08/31 07:16:04;;;;;;;44.75;5.57;;;;;;;;;;5073725;28;20430;-59
2021/08/31 07:18:30;;;;;;;40.78;4.32;;;;;;;;;;5072637;28;20062;-60
2021/08/31 07:20:56;;;;;;;29.40;3.88;;;;;;;;;;5092337;28;20410;-59
2021/08/31 07:23:22;;;;;;;38.28;4.22;;;;;;;;;;5075124;28;20055;-60
2021/08/31 07:25:48;;;;;;;33.47;4.00;;;;;;;;;;5073522;28;20035;-64
2021/08/31 07:28:14;;;;;;;38.72;4.70;;;;;;;;;;5073297;28;20036;-67
2021/08/31 07:30:41;;;;;;;56.83;4.40;;;;;;;;;;5073648;28;20023;-67
2021/08/31 07:33:08;;;;;;;28.73;3.70;;;;;;;;;;5073504;28;20037;-67
2021/08/31 07:35:34;;;;;;;26.90;4.25;;;;;;;;;;5073210;28;20024;-65
2021/08/31 07:38:00;;;;;;;17.05;4.05;;;;;;;;;;5072503;28;20449;-64
2021/08/31 07:40:27;;;;;;;25.80;4.07;;;;;;;;;;5073163;28;20047;-67
2021/08/31 07:42:53;;;;;;;22.23;4.38;;;;;;;;;;5073311;28;20048;-66
2021/08/31 07:45:19;;;;;;;19.58;4.07;;;;;;;;;;5073252;28;20043;-66
2021/08/31 07:47:45;;;;;;;16.52;4.47;;;;;;;;;;5073063;28;20085;-66
2021/08/31 07:50:11;;;;;;;13.88;3.90;;;;;;;;;;5073011;28;20036;-66
2021/08/31 07:52:37;;;;;;;16.33;4.40;;;;;;;;;;5077142;28;20062;-66
2021/08/31 07:55:04;;;;;;;15.30;3.90;;;;;;;;;;5072945;28;20032;-66
2021/08/31 07:57:30;;;;;;;15.98;4.18;;;;;;;;;;5073260;28;20116;-68
2021/08/31 07:59:57;;;;;;;18.45;4.47;;;;;;;;;;5073211;28;20103;-67
2021/08/31 08:02:23;;;;;;;14.73;3.92;;;;;;;;;;5072966;28;20033;-65
2021/08/31 08:04:51;;;;;;;13.93;4.22;;;;;;;;;;5072888;28;20058;-67
2021/08/31 08:07:17;;;;;;;24.58;4.03;;;;;;;;;;5072185;28;20170;-67
2021/08/31 08:09:43;;;;;;;15.02;3.67;;;;;;;;;;5072739;28;20485;-67
2021/08/31 08:12:10;;;;;;;14.02;4.03;;;;;;;;;;5073049;28;20028;-67
2021/08/31 08:14:36;;;;;;;9.05;3.05;;;;;;;;;;5072749;28;20021;-66
2021/08/31 08:17:02;;;;;;;18.10;3.78;;;;;;;;;;5071900;28;20032;-66
2021/08/31 08:19:28;;;;;;;9.93;3.67;;;;;;;;;;5072684;28;20094;-67
2021/08/31 08:21:54;;;;;;;17.10;3.95;;;;;;;;;;5072936;28;20458;-67
2021/08/31 08:24:20;;;;;;;15.75;3.92;;;;;;;;;;5072931;28;20043;-68
2021/08/31 08:26:46;;;;;;;17.10;3.50;;;;;;;;;;5072633;28;20020;-67
2021/08/31 08:29:12;;;;;;;12.55;4.22;;;;;;;;;;5072542;28;20488;-66
2021/08/31 08:31:42;;;;;;;8.48;3.72;;;;;;;;;;5072326;28;20036;-66
2021/08/31 08:34:08;;;;;;;20.23;4.40;;;;;;;;;;5072590;28;20024;-66
2021/08/31 08:36:34;;;;;;;15.80;4.43;;;;;;;;;;5072590;28;20025;-67
2021/08/31 08:39:00;;;;;;;15.35;4.50;;;;;;;;;;5072335;28;20104;-67
2021/08/31 08:41:26;;;;;;;15.13;4.05;;;;;;;;;;5071316;28;20037;-67
2021/08/31 08:43:58;;;;;;;18.33;4.53;;;;;;;;;;5072767;28;20440;-66
2021/08/31 08:46:24;;;;;;;19.38;4.30;;;;;;;;;;5072587;28;20016;-65
2021/08/31 08:48:50;;;;;;;21.13;4.05;;;;;;;;;;5074458;28;20098;-66
2021/08/31 08:51:16;;;;;;;18.10;4.30;;;;;;;;;;5076642;28;20028;-66
2021/08/31 08:53:42;;;;;;;12.73;4.05;;;;;;;;;;5058393;28;20025;-66
2021/08/31 08:56:08;;;;;;;11.15;4.32;;;;;;;;;;5076616;28;20055;-67
2021/08/31 08:58:34;;;;;;;11.85;4.43;;;;;;;;;;5075504;28;20067;-67
2021/08/31 09:01:05;;;;;;;16.65;4.40;;;;;;;;;;5076255;28;20021;-66
2021/08/31 09:03:32;;;;;;;13.68;4.22;;;;;;;;;;5076350;28;20029;-66
2021/08/31 09:06:08;;;;;;;14.93;4.50;;;;;;;;;;5058316;28;20376;-67
2021/08/31 09:08:35;;;;;;;19.20;4.32;;;;;;;;;;5076281;28;20036;-68
2021/08/31 09:11:17;;;;;;;14.13;4.00;;;;;;;;;;5076225;28;20024;-66
2021/08/31 09:13:43;;;;;;;12.68;4.50;;;;;;;;;;5075327;28;20028;-67
2021/08/31 09:16:27;;;;;;;19.83;4.32;;;;;;;;;;5076401;28;20028;-67
2021/08/31 09:18:54;;;;;;;19.20;4.78;;;;;;;;;;5074004;28;20067;-64
2021/08/31 09:21:24;;;;;;;18.20;4.65;;;;;;;;;;5055416;28;20032;-66
2021/08/31 09:23:51;;;;;;;32.90;4.65;;;;;;;;;;5036625;28;20531;-67
2021/08/31 09:26:18;;;;;;;16.88;4.35;;;;;;;;;;5054506;28;20021;-66
2021/08/31 09:28:45;;;;;;;15.75;4.25;;;;;;;;;;5054765;28;20400;-66
2021/08/31 09:31:18;;;;;;;15.27;5.32;;;;;;;;;;5054903;28;20468;-66
2021/08/31 09:33:51;;;;;;;14.93;4.07;;;;;;;;;;5054876;28;20507;-66
2021/08/31 09:36:19;;;;;;;15.88;4.10;;;;;;;;;;5054941;28;20028;-67
2021/08/31 09:38:45;;;;;;;12.23;4.63;;;;;;;;;;5055052;28;20396;-67
2021/08/31 09:41:11;;;;;;;18.40;4.85;;;;;;;;;;5055146;28;20017;-66
2021/08/31 09:43:47;;;;;;;17.67;4.80;;;;;;;;;;5055037;28;20021;-66
2021/08/31 09:46:13;;;;;;;18.02;4.70;;;;;;;;;;5055488;28;20132;-66
2021/08/31 09:48:41;;;;;;;17.15;4.43;;;;;;;;;;5051436;28;20104;-67
2021/08/31 09:51:11;;;;;;;13.77;4.13;;;;;;;;;;5055096;28;20052;-66
2021/08/31 09:53:37;;;;;;;20.25;4.63;;;;;;;;;;5055584;28;20070;-67
2021/08/31 09:56:03;;;;;;;14.55;4.53;;;;;;;;;;5055076;28;20029;-65
2021/08/31 09:58:29;;;;;;;15.55;4.53;;;;;;;;;;5054726;28;20132;-65
2021/08/31 10:00:56;;;;;;;16.02;4.20;;;;;;;;;;5054031;28;20044;-66
2021/08/31 10:03:22;;;;;;;21.77;4.40;;;;;;;;;;5055205;28;20444;-66
2021/08/31 10:05:50;;;;;;;17.33;4.57;;;;;;;;;;5055089;28;20070;-65
2021/08/31 10:08:16;;;;;;;21.40;4.65;;;;;;;;;;5054880;28;20029;-66
2021/08/31 10:10:44;;;;;;;21.05;4.78;;;;;;;;;;5055102;28;20029;-65
2021/08/31 10:13:10;;;;;;;15.13;4.63;;;;;;;;;;5055037;28;20068;-65
2021/08/31 10:15:38;;;;;;;19.30;4.95;;;;;;;;;;5054007;28;20411;-65
2021/08/31 10:18:05;;;;;;;19.45;4.93;;;;;;;;;;5054940;28;20024;-65
2021/08/31 10:20:31;;;;;;;12.07;4.07;;;;;;;;;;5068430;28;20265;-65
2021/08/31 10:22:57;;;;;;;12.45;4.18;;;;;;;;;;5074595;28;20032;-65
2021/08/31 10:25:25;;;;;;;19.52;4.50;;;;;;;;;;5074593;28;20051;-65
2021/08/31 10:27:51;;;;;;;10.27;3.97;;;;;;;;;;5074821;28;20043;-65
2021/08/31 10:30:17;;;;;;;14.88;4.38;;;;;;;;;;5074564;28;20021;-66
2021/08/31 10:32:44;;;;;;;16.95;4.78;;;;;;;;;;5074478;28;20021;-65
2021/08/31 10:35:10;;;;;;;15.43;4.35;;;;;;;;;;5074739;28;20020;-66
2021/08/31 10:37:46;;;;;;;16.05;4.10;;;;;;;;;;5056290;28;20024;-66
2021/08/31 10:40:30;;;;;;;11.25;3.85;;;;;;;;;;5074430;28;20103;-66
2021/08/31 10:42:56;;;;;;;14.80;4.50;;;;;;;;;;5074376;28;20392;-66
2021/08/31 10:45:25;;;;;;;22.13;4.78;;;;;;;;;;5056108;28;20115;-66
2021/08/31 10:47:51;;;;;;;14.93;4.22;;;;;;;;;;5074141;28;20051;-64
2021/08/31 10:50:18;;;;;;;10.63;4.30;;;;;;;;;;5073261;28;20027;-68
2021/08/31 10:52:49;;;;;;;11.68;4.18;;;;;;;;;;5073905;28;20112;-62
2021/08/31 10:55:24;;;;;;;16.25;4.57;;;;;;;;;;5072679;28;20036;-64
2021/08/31 10:58:01;;;;;;;16.38;4.68;;;;;;;;;;5070499;28;20017;-66
2021/08/31 11:00:28;;;;;;;15.82;4.40;;;;;;;;;;5056077;28;20074;-67
2021/08/31 11:02:58;;;;;;;16.13;3.97;;;;;;;;;;5074149;28;20013;-68
2021/08/31 11:05:24;;;;;;;15.02;4.18;;;;;;;;;;5073970;28;20032;-66
2021/08/31 11:07:52;;;;;;;13.35;4.50;;;;;;;;;;5060062;28;20033;-66
2021/08/31 11:10:27;;;;;;;20.25;4.60;;;;;;;;;;5073416;28;20385;-67
2021/08/31 11:12:53;;;;;;;15.77;4.63;;;;;;;;;;5073725;28;20029;-66
2021/08/31 11:15:23;;;;;;;17.60;4.50;;;;;;;;;;5073597;28;20024;-68
2021/08/31 11:17:51;;;;;;;15.60;4.60;;;;;;;;;;5073710;28;20032;-68
2021/08/31 11:20:26;;;;;;;13.88;4.13;;;;;;;;;;5086639;28;20044;-67
2021/08/31 11:22:52;;;;;;;13.98;4.25;;;;;;;;;;5079175;28;20031;-66
2021/08/31 11:25:28;;;;;;;24.67;4.65;;;;;;;;;;5081006;28;20027;-65
2021/08/31 11:28:02;;;;;;;34.13;4.78;;;;;;;;;;5076473;28;20041;-73
2021/08/31 11:30:29;;;;;;;31.65;4.70;;;;;;;;;;5076144;28;20028;-72
2021/08/31 11:33:15;;;;;;;23.85;4.53;;;;;;;;;;5075714;28;20094;-74
2021/08/31 11:35:41;;;;;;;17.77;4.10;;;;;;;;;;5093892;28;20027;-75
2021/08/31 11:38:08;;;;;;;18.50;4.57;;;;;;;;;;5094077;28;20028;-75
2021/08/31 11:40:34;;;;;;;17.48;4.60;;;;;;;;;;5075952;28;20070;-72
2021/08/31 11:43:00;;;;;;;17.52;3.85;;;;;;;;;;5094027;28;20028;-71
2021/08/31 11:45:33;;;;;;;17.70;4.60;;;;;;;;;;5094309;28;20089;-74
2021/08/31 11:47:59;;;;;;;15.82;4.20;;;;;;;;;;5093630;28;20482;-74
2021/08/31 11:50:25;;;;;;;14.93;3.83;;;;;;;;;;5075331;28;20024;-70
2021/08/31 11:52:51;;;;;;;19.33;4.63;;;;;;;;;;5075366;28;20138;-74
2021/08/31 11:55:27;;;;;;;18.13;4.55;;;;;;;;;;5093873;28;20038;-74
2021/08/31 11:58:03;;;;;;;16.67;4.45;;;;;;;;;;5093740;28;20020;-74
2021/08/31 12:00:42;;;;;;;11.70;4.18;;;;;;;;;;5041712;28;20035;-71
2021/08/31 12:03:20;;;;;;;21.77;4.43;;;;;;;;;;5053367;28;20036;-62
2021/08/31 12:05:46;;;;;;;16.13;4.30;;;;;;;;;;5053200;28;20021;-71
2021/08/31 12:08:12;;;;;;;18.88;4.35;;;;;;;;;;5035300;28;20086;-71
2021/08/31 12:10:39;;;;;;;18.73;4.50;;;;;;;;;;5035466;28;20105;-72
2021/08/31 12:13:05;;;;;;;17.25;4.63;;;;;;;;;;5035453;28;20028;-72
2021/08/31 12:15:32;;;;;;;24.05;4.68;;;;;;;;;;5053151;28;20032;-71
2021/08/31 12:18:05;;;;;;;14.85;3.63;;;;;;;;;;5053255;28;20020;-72
2021/08/31 12:20:32;;;;;;;18.77;4.75;;;;;;;;;;5053039;28;20048;-70
2021/08/31 12:23:02;;;;;;;21.02;4.80;;;;;;;;;;5052620;28;20368;-70
2021/08/31 12:25:39;;;;;;;20.00;3.75;;;;;;;;;;5057036;28;20464;-71
2021/08/31 12:28:05;;;;;;;17.25;4.05;;;;;;;;;;5072777;28;20040;-70
2021/08/31 12:30:38;;;;;;;25.67;4.32;;;;;;;;;;5073061;28;20086;-70
2021/08/31 12:33:04;;;;;;;23.60;4.47;;;;;;;;;;5054804;28;20025;-70
2021/08/31 12:38:18;;;;;;;24.63;4.57;;;;;;;;;;5073384;28;20047;-71
2021/08/31 12:40:53;;;;;;;12.98;4.20;;;;;;;;;;5054896;28;20059;-71
2021/08/31 12:43:20;;;;;;;20.45;4.40;;;;;;;;;;5072936;28;20342;-71
2021/08/31 12:45:53;;;;;;;21.45;5.15;;;;;;;;;;5073319;28;20021;-71
2021/08/31 12:48:19;;;;;;;15.93;4.20;;;;;;;;;;5072898;28;20036;-70
2021/08/31 12:50:52;;;;;;;16.55;4.43;;;;;;;;;;5054701;28;20078;-70
2021/08/31 12:53:18;;;;;;;18.42;4.22;;;;;;;;;;5072918;28;20024;-71
2021/08/31 12:55:59;;;;;;;19.83;4.80;;;;;;;;;;5072568;28;20464;-71
2021/08/31 12:58:26;;;;;;;19.35;4.60;;;;;;;;;;5072716;28;20468;-71
2021/08/31 13:01:12;;;;;;;20.40;4.50;;;;;;;;;;5054794;28;20041;-71
2021/08/31 13:03:39;;;;;;;25.05;4.65;;;;;;;;;;5093303;28;20488;-72
2021/08/31 13:06:05;;;;;;;17.67;3.65;;;;;;;;;;5074857;28;20016;-71
2021/08/31 13:08:31;;;;;;;20.98;4.43;;;;;;;;;;5092868;28;20032;-70
2021/08/31 13:10:57;;;;;;;23.08;4.53;;;;;;;;;;5074709;28;20024;-71
2021/08/31 13:13:28;;;;;;;19.38;3.95;;;;;;;;;;5092626;28;20161;-71
2021/08/31 13:15:54;;;;;;;21.38;4.63;;;;;;;;;;5092624;28;20031;-70
2021/08/31 13:18:20;;;;;;;17.35;4.22;;;;;;;;;;5061164;28;20106;-70
2021/08/31 13:20:46;;;;;;;22.48;4.15;;;;;;;;;;5051960;28;20453;-71
2021/08/31 13:23:12;;;;;;;22.58;4.07;;;;;;;;;;5051685;28;20541;-71
2021/08/31 13:25:37;;;;;;;17.50;4.13;;;;;;;;;;5072514;28;20029;-71
2021/08/31 13:28:03;;;;;;;19.55;3.50;;;;;;;;;;5072464;28;20032;-71
2021/08/31 13:30:29;;;;;;;13.30;3.38;;;;;;;;;;5072448;28;20452;-71
2021/08/31 13:32:55;;;;;;;24.05;4.22;;;;;;;;;;5071915;28;20516;-71
2021/08/31 13:35:21;;;;;;;20.88;4.35;;;;;;;;;;5075310;28;20378;-71
2021/08/31 13:37:50;;;;;;;29.38;3.50;;;;;;;;;;5057746;28;20024;-70
2021/08/31 13:40:16;;;;;;;23.67;4.00;;;;;;;;;;5075593;28;20021;-70
2021/08/31 13:42:42;;;;;;;16.67;3.25;;;;;;;;;;5076044;28;20103;-71
2021/08/31 13:45:08;;;;;;;14.35;3.70;;;;;;;;;;5075931;28;20115;-70
2021/08/31 13:47:34;;;;;;;12.98;3.47;;;;;;;;;;5075252;28;20027;-71
2021/08/31 13:50:00;;;;;;;15.68;3.75;;;;;;;;;;5075280;28;20024;-70
2021/08/31 13:52:26;;;;;;;13.32;3.72;;;;;;;;;;5074823;28;20414;-70
2021/08/31 13:54:52;;;;;;;28.10;4.88;;;;;;;;;;5056558;28;20078;-66
2021/08/31 13:57:18;;;;;;;18.77;3.65;;;;;;;;;;5074475;28;20024;-68
2021/08/31 13:59:45;;;;;;;14.35;3.50;;;;;;;;;;5074342;28;20028;-68
2021/08/31 14:02:10;;;;;;;19.58;3.60;;;;;;;;;;5074419;28;20021;-67
2021/08/31 14:04:36;;;;;;;17.33;3.30;;;;;;;;;;5075360;28;20074;-66
2021/08/31 14:07:04;;;;;;;20.98;2.95;;;;;;;;;;5056967;28;20020;-68
2021/08/31 14:09:30;;;;;;;14.88;3.05;;;;;;;;;;5074402;28;20078;-67
2021/08/31 14:11:56;;;;;;;13.05;3.40;;;;;;;;;;5075468;28;20052;-66
2021/08/31 14:14:22;;;;;;;16.55;3.75;;;;;;;;;;5073998;28;20028;-67
2021/08/31 14:16:48;;;;;;;11.85;3.25;;;;;;;;;;5075062;28;20051;-68
2021/08/31 14:19:14;;;;;;;12.35;2.78;;;;;;;;;;5076832;28;20028;-70
2021/08/31 14:21:40;;;;;;;13.05;3.03;;;;;;;;;;5072739;28;20063;-67
2021/08/31 14:24:06;;;;;;;14.43;3.45;;;;;;;;;;5074829;28;20024;-67
2021/08/31 14:26:32;;;;;;;15.70;3.20;;;;;;;;;;5057095;28;20039;-71
2021/08/31 14:28:58;;;;;;;16.73;3.50;;;;;;;;;;5075377;28;20037;-71
2021/08/31 14:31:24;;;;;;;16.23;2.88;;;;;;;;;;5075166;28;20074;-74
2021/08/31 14:33:50;;;;;;;9.02;2.60;;;;;;;;;;5074893;28;20021;-68